Time;durP1;ratioP1;P1;durP2;ratioP2;P2;SDS_P1;SDS_P2;PMS_P1;PMS_P2;Temp;Humidity;BMP_temperature;BMP_pressure;BME280_temperature;BME280_humidity;BME280_pressure;Samples;Min_cycle;Max_cycle;Signal;HPM_P1;HPM_P2
2021/11/23 09:11:04;;;;;;;29.95;15.60;;;3.10;99.90;;;;;;5090935;28;20155;-61
2021/11/23 09:13:30;;;;;;;27.90;15.75;;;3.10;99.90;;;;;;5091174;28;20039;-65
2021/11/23 09:15:55;;;;;;;27.25;15.73;;;3.20;99.90;;;;;;5090757;28;20039;-64
2021/11/23 09:18:21;;;;;;;29.05;15.35;;;3.30;99.90;;;;;;5073115;28;20025;-61
2021/11/23 09:20:47;;;;;;;31.13;16.15;;;3.50;99.90;;;;;;5088515;28;20012;-59
2021/11/23 09:23:13;;;;;;;30.10;15.55;;;3.60;99.90;;;;;;5090710;28;20460;-61
2021/11/23 09:25:42;;;;;;;25.88;14.63;;;3.70;99.90;;;;;;5091025;28;20030;-61
2021/11/23 09:28:09;;;;;;;29.58;14.90;;;3.80;99.90;;;;;;5090913;28;20031;-56
2021/11/23 09:30:35;;;;;;;24.20;13.93;;;4.00;99.90;;;;;;5084336;28;20365;-62
2021/11/23 09:33:03;;;;;;;25.30;13.75;;;4.10;99.90;;;;;;5090671;28;20314;-62
2021/11/23 09:35:29;;;;;;;28.02;14.68;;;4.30;99.90;;;;;;5072595;28;20021;-64
2021/11/23 09:37:56;;;;;;;25.35;13.30;;;4.30;99.90;;;;;;5083788;28;20198;-62
2021/11/23 09:40:22;;;;;;;23.77;14.43;;;4.40;99.90;;;;;;5090597;28;20024;-60
2021/11/23 09:42:50;;;;;;;29.88;16.23;;;4.50;99.90;;;;;;5065583;28;20028;-64
2021/11/23 09:45:18;;;;;;;21.67;13.68;;;4.60;99.90;;;;;;5072481;28;20034;-64
2021/11/23 09:47:45;;;;;;;28.67;14.55;;;4.70;99.90;;;;;;5090396;28;20457;-61
2021/11/23 09:50:13;;;;;;;21.98;13.15;;;4.70;99.90;;;;;;5090300;28;20046;-63
2021/11/23 09:52:42;;;;;;;24.30;14.40;;;4.80;99.90;;;;;;5072026;28;20024;-63
2021/11/23 09:55:10;;;;;;;26.45;14.57;;;4.70;99.90;;;;;;5083425;28;20031;-62
2021/11/23 09:57:36;;;;;;;30.42;15.32;;;4.70;99.90;;;;;;5072076;28;20035;-60
2021/11/23 10:00:21;;;;;;;25.98;14.15;;;4.80;99.90;;;;;;5090027;28;20016;-63
2021/11/23 10:02:46;;;;;;;28.98;16.58;;;4.80;99.90;;;;;;5089778;28;20103;-62
2021/11/23 10:05:15;;;;;;;26.52;15.57;;;4.90;99.90;;;;;;5083857;28;20124;-62
2021/11/23 10:07:43;;;;;;;27.83;14.88;;;4.80;99.90;;;;;;5094727;28;20026;-65
2021/11/23 10:10:27;;;;;;;23.15;13.73;;;4.80;99.90;;;;;;5097227;28;20096;-63
2021/11/23 10:13:00;;;;;;;23.20;14.43;;;4.90;99.90;;;;;;5091403;28;20037;-62
2021/11/23 10:15:29;;;;;;;27.38;15.43;;;5.00;99.90;;;;;;5084196;28;20049;-60
2021/11/23 10:18:12;;;;;;;23.13;13.68;;;5.10;99.90;;;;;;5089525;28;20048;-64
2021/11/23 10:20:43;;;;;;;24.83;14.25;;;5.30;99.90;;;;;;5079521;28;20103;-64
2021/11/23 10:23:28;;;;;;;24.52;13.93;;;5.30;99.90;;;;;;5074602;28;20043;-63
2021/11/23 10:26:11;;;;;;;25.50;15.38;;;5.30;99.90;;;;;;5071825;28;20461;-62
2021/11/23 10:28:37;;;;;;;23.27;13.70;;;5.40;99.90;;;;;;5058500;28;20025;-63
2021/11/23 10:31:05;;;;;;;25.27;14.18;;;5.60;99.90;;;;;;5076386;28;20025;-65
2021/11/23 10:33:33;;;;;;;28.00;14.40;;;5.50;99.90;;;;;;5076247;28;20019;-63
2021/11/23 10:35:59;;;;;;;24.98;14.23;;;5.60;99.90;;;;;;5069676;28;20024;-64
2021/11/23 10:38:27;;;;;;;23.83;13.90;;;5.50;99.90;;;;;;5069340;28;20031;-60
2021/11/23 10:40:56;;;;;;;29.90;15.20;;;5.60;99.90;;;;;;5064772;28;20032;-64
2021/11/23 10:43:23;;;;;;;24.95;14.32;;;5.70;99.90;;;;;;5054562;28;20090;-59
2021/11/23 10:45:54;;;;;;;28.65;15.27;;;5.90;99.90;;;;;;5066760;28;20025;-63
2021/11/23 10:48:23;;;;;;;25.35;13.70;;;6.10;99.90;;;;;;5058157;28;20028;-64
2021/11/23 10:51:11;;;;;;;29.95;14.90;;;6.00;99.90;;;;;;5080051;28;20059;-62
2021/11/23 10:53:42;;;;;;;23.25;13.98;;;6.20;99.90;;;;;;5075796;28;20082;-65
2021/11/23 10:56:13;;;;;;;24.67;15.07;;;6.30;99.90;;;;;;5076983;28;20024;-62
2021/11/23 10:58:41;;;;;;;24.60;13.02;;;6.50;99.90;;;;;;5070332;28;20086;-64
2021/11/23 11:01:10;;;;;;;22.20;12.48;;;6.50;99.90;;;;;;5081104;28;20392;-61
2021/11/23 11:03:38;;;;;;;31.27;13.63;;;6.60;99.90;;;;;;5075252;28;20119;-64
2021/11/23 11:06:05;;;;;;;27.55;14.05;;;6.80;99.90;;;;;;5078058;28;20497;-63
2021/11/23 11:08:37;;;;;;;19.85;12.68;;;6.80;99.90;;;;;;5075501;28;20035;-65
2021/11/23 11:11:06;;;;;;;26.35;14.00;;;6.80;99.90;;;;;;5075126;28;20097;-66
2021/11/23 11:13:33;;;;;;;20.20;13.30;;;6.90;99.90;;;;;;5087121;28;20038;-64
2021/11/23 11:16:00;;;;;;;22.33;13.10;;;6.90;99.90;;;;;;5084568;28;20019;-62
2021/11/23 11:18:26;;;;;;;25.73;14.90;;;6.80;99.90;;;;;;5075296;28;20025;-63
2021/11/23 11:21:05;;;;;;;19.52;12.32;;;6.90;99.90;;;;;;5070287;28;20025;-63
2021/11/23 11:23:42;;;;;;;23.45;13.02;;;7.00;99.90;;;;;;5075139;28;20654;-64
2021/11/23 11:26:14;;;;;;;26.02;12.95;;;7.10;99.90;;;;;;5076739;28;20127;-63
2021/11/23 11:28:45;;;;;;;20.23;12.98;;;7.20;99.90;;;;;;5059183;28;20028;-63
2021/11/23 11:31:43;;;;;;;22.27;12.52;;;7.10;99.90;;;;;;5074741;28;20477;-64
2021/11/23 11:34:25;;;;;;;32.30;15.23;;;7.00;99.90;;;;;;5057679;28;20039;-65
2021/11/23 11:37:15;;;;;;;22.58;13.77;;;7.10;99.90;;;;;;5071006;28;20069;-63
2021/11/23 11:39:41;;;;;;;26.58;14.52;;;7.40;99.90;;;;;;5068555;28;20469;-61
2021/11/23 11:42:19;;;;;;;26.75;14.15;;;7.30;99.90;;;;;;5074647;28;20108;-65
2021/11/23 11:44:51;;;;;;;25.17;14.82;;;7.50;99.90;;;;;;5070420;28;20028;-63
2021/11/23 11:47:31;;;;;;;23.98;13.90;;;7.60;99.90;;;;;;5076222;28;20021;-63
2021/11/23 11:50:08;;;;;;;22.60;13.60;;;7.90;99.90;;;;;;5074194;28;20032;-64
2021/11/23 11:53:03;;;;;;;30.75;15.75;;;8.00;99.90;;;;;;5076291;28;20025;-62
2021/11/23 11:55:33;;;;;;;27.83;14.77;;;8.00;99.90;;;;;;5072995;28;20334;-65
2021/11/23 11:58:04;;;;;;;26.50;15.38;;;8.10;99.90;;;;;;5053898;28;20016;-64
2021/11/23 12:00:32;;;;;;;37.97;16.95;;;8.30;99.90;;;;;;5074049;28;20100;-65
2021/11/23 12:03:23;;;;;;;25.80;14.38;;;8.50;99.90;;;;;;5068277;28;20036;-64
2021/11/23 12:05:49;;;;;;;;;;;8.60;99.90;;;;;;5056325;28;20065;-65
2021/11/23 12:08:24;;;;;;;26.25;14.23;;;8.60;99.90;;;;;;5074130;28;19950;-62
2021/11/23 12:10:50;;;;;;;24.58;14.65;;;9.00;99.90;;;;;;5074211;28;20035;-62
2021/11/23 12:13:40;;;;;;;21.83;14.50;;;9.10;99.90;;;;;;5058975;28;20024;-65
2021/11/23 12:16:26;;;;;;;24.63;14.23;;;9.20;99.90;;;;;;5069769;28;20025;-68
2021/11/23 12:18:57;;;;;;;27.60;14.40;;;9.10;99.90;;;;;;5051553;28;20025;-62
2021/11/23 12:21:27;;;;;;;22.97;14.07;;;9.10;99.90;;;;;;5073415;28;20454;-66
2021/11/23 12:23:59;;;;;;;21.02;13.40;;;9.00;99.90;;;;;;5067569;28;20696;-64
2021/11/23 12:26:36;;;;;;;29.80;15.00;;;8.80;99.90;;;;;;5074476;28;20016;-64
2021/11/23 12:29:05;;;;;;;25.45;16.20;;;8.60;99.90;;;;;;5073781;28;20511;-64
2021/11/23 12:31:36;;;;;;;26.27;16.10;;;8.60;99.90;;;;;;5067597;28;20016;-63
2021/11/23 12:34:06;;;;;;;27.15;14.18;;;8.50;99.90;;;;;;5068641;28;20093;-61
2021/11/23 12:36:38;;;;;;;25.15;14.00;;;8.60;99.90;;;;;;5073537;28;20105;-63
2021/11/23 12:39:27;;;;;;;25.85;14.73;;;8.40;99.90;;;;;;5067188;28;20089;-60
2021/11/23 12:42:00;;;;;;;27.55;13.93;;;8.50;99.90;;;;;;5061882;28;20040;-62
2021/11/23 12:44:34;;;;;;;25.05;15.02;;;8.70;99.90;;;;;;5073218;28;20032;-63
2021/11/23 12:47:03;;;;;;;29.45;16.23;;;8.70;99.90;;;;;;5066277;28;20025;-61
2021/11/23 12:49:33;;;;;;;28.25;16.02;;;8.90;99.90;;;;;;5067592;28;20054;-64
2021/11/23 12:52:26;;;;;;;26.13;14.93;;;9.00;99.90;;;;;;5067063;28;20031;-64
2021/11/23 12:54:53;;;;;;;24.80;14.38;;;8.80;99.90;;;;;;5073592;28;20016;-62
2021/11/23 12:57:21;;;;;;;23.45;14.52;;;8.70;99.90;;;;;;5070333;28;20024;-62
2021/11/23 12:59:59;;;;;;;23.15;13.55;;;8.50;99.90;;;;;;5073555;28;20025;-61
2021/11/23 13:02:29;;;;;;;27.45;16.10;;;8.50;99.90;;;;;;5073444;28;20365;-64
2021/11/23 13:05:00;;;;;;;30.33;15.77;;;8.40;99.90;;;;;;5055687;28;20028;-62
2021/11/23 13:07:26;;;;;;;;;;;8.30;99.90;;;;;;5068301;28;20077;-65
2021/11/23 13:09:54;;;;;;;24.20;14.90;;;8.20;99.90;;;;;;5076708;28;20327;-65
2021/11/23 13:12:25;;;;;;;26.17;14.55;;;8.10;99.90;;;;;;5056031;28;20033;-62
2021/11/23 13:14:51;;;;;;;26.45;15.30;;;8.10;99.90;;;;;;5049391;28;20028;-65
2021/11/23 13:17:16;;;;;;;31.85;15.45;;;8.00;99.90;;;;;;5073526;28;20012;-61
2021/11/23 13:19:54;;;;;;;24.58;15.15;;;7.80;99.90;;;;;;5073379;28;20036;-64
2021/11/23 13:22:20;;;;;;;28.33;15.48;;;7.80;99.90;;;;;;5072901;28;20039;-62
2021/11/23 13:24:48;;;;;;;27.33;15.57;;;7.80;99.90;;;;;;5072636;28;20029;-63
2021/11/23 13:27:14;;;;;;;25.33;14.55;;;7.70;99.90;;;;;;5073266;28;20070;-64
2021/11/23 13:29:45;;;;;;;29.30;15.40;;;7.60;99.90;;;;;;5073065;28;20044;-64
2021/11/23 13:32:10;;;;;;;;;;;7.70;99.90;;;;;;5073506;28;20049;-62
2021/11/23 13:34:36;;;;;;;32.10;15.10;;;7.60;99.90;;;;;;5073608;28;19943;-65
2021/11/23 13:37:02;;;;;;;27.08;14.77;;;7.50;99.90;;;;;;5073602;28;20086;-61
2021/11/23 13:39:30;;;;;;;29.95;14.77;;;7.40;99.90;;;;;;5073803;28;20628;-61
2021/11/23 13:41:58;;;;;;;35.20;15.90;;;7.50;99.90;;;;;;5073047;28;20032;-66
2021/11/23 13:44:26;;;;;;;27.85;15.05;;;7.60;99.90;;;;;;5049302;28;20446;-64
2021/11/23 13:46:57;;;;;;;24.20;14.43;;;7.60;99.90;;;;;;5067245;28;20417;-63
2021/11/23 13:49:31;;;;;;;26.60;16.10;;;7.50;99.90;;;;;;5073628;28;20047;-63
2021/11/23 13:52:05;;;;;;;25.77;14.48;;;7.60;99.90;;;;;;5071834;28;20035;-62
2021/11/23 13:54:43;;;;;;;25.02;14.50;;;7.50;99.90;;;;;;5071582;28;20082;-65
2021/11/23 13:57:15;;;;;;;23.95;14.02;;;7.50;99.90;;;;;;5076949;28;20020;-63
2021/11/23 13:59:50;;;;;;;26.27;15.05;;;7.40;99.90;;;;;;5076907;28;20036;-65
2021/11/23 14:02:16;;;;;;;34.45;15.82;;;7.50;99.90;;;;;;5076788;28;20400;-62
2021/11/23 14:04:44;;;;;;;28.42;15.93;;;7.40;99.90;;;;;;5059047;28;20024;-64
2021/11/23 14:07:12;;;;;;;27.92;15.73;;;7.40;99.90;;;;;;5076536;28;20056;-70
2021/11/23 14:09:47;;;;;;;31.52;15.82;;;7.40;99.90;;;;;;5076394;28;20043;-63
2021/11/23 14:12:27;;;;;;;27.08;15.63;;;7.40;99.90;;;;;;5058473;28;20100;-64
2021/11/23 14:15:11;;;;;;;26.98;16.25;;;7.40;99.90;;;;;;5076438;28;20035;-64
2021/11/23 14:18:01;;;;;;;26.73;15.05;;;7.30;99.90;;;;;;5076340;28;20138;-64
2021/11/23 14:20:47;;;;;;;29.20;14.88;;;7.30;99.90;;;;;;5069825;28;20552;-61
2021/11/23 14:23:33;;;;;;;35.55;16.27;;;7.30;99.90;;;;;;5058778;28;20115;-64
2021/11/23 14:26:00;;;;;;;30.90;15.95;;;7.30;99.90;;;;;;5079137;28;20020;-60
2021/11/23 14:28:28;;;;;;;29.75;15.65;;;7.40;99.90;;;;;;5078738;28;20040;-63
2021/11/23 14:30:55;;;;;;;28.23;14.13;;;7.20;99.90;;;;;;5075935;28;20035;-65
2021/11/23 14:33:24;;;;;;;37.25;15.73;;;7.20;99.90;;;;;;5069419;28;20020;-65
2021/11/23 14:35:51;;;;;;;29.42;15.77;;;7.20;99.90;;;;;;5076100;28;20041;-63
2021/11/23 14:38:17;;;;;;;29.30;15.45;;;7.20;99.90;;;;;;5076095;28;20345;-64
2021/11/23 14:40:44;;;;;;;30.38;15.93;;;7.20;99.90;;;;;;5076148;28;20032;-63
2021/11/23 14:43:13;;;;;;;30.75;16.23;;;7.10;99.90;;;;;;5075981;28;20017;-63
2021/11/23 14:45:38;;;;;;;28.85;15.65;;;7.10;99.90;;;;;;5076260;28;20036;-62
2021/11/23 14:48:07;;;;;;;30.55;16.23;;;7.00;99.90;;;;;;5069083;28;20024;-61
2021/11/23 14:50:34;;;;;;;30.58;16.95;;;6.90;99.90;;;;;;5058236;28;20339;-59
2021/11/23 14:53:01;;;;;;;35.42;16.13;;;6.80;99.90;;;;;;5080531;28;20104;-63
2021/11/23 14:55:29;;;;;;;29.50;16.13;;;6.80;99.90;;;;;;5057461;28;20020;-65
2021/11/23 14:57:56;;;;;;;32.65;15.75;;;6.80;99.90;;;;;;5075424;28;20020;-63
2021/11/23 15:00:25;;;;;;;34.40;15.82;;;6.80;99.90;;;;;;5075494;28;20032;-64
2021/11/23 15:02:50;;;;;;;30.48;15.18;;;6.80;99.90;;;;;;5075331;28;20096;-61
2021/11/23 15:05:17;;;;;;;37.28;17.02;;;6.90;99.90;;;;;;5075314;28;20887;-62
2021/11/23 15:07:42;;;;;;;38.47;16.67;;;6.80;99.90;;;;;;5072531;28;20107;-61
2021/11/23 15:10:10;;;;;;;40.15;18.00;;;6.80;99.90;;;;;;5071167;28;20115;-63
2021/11/23 15:12:39;;;;;;;30.63;16.27;;;6.70;99.90;;;;;;5074958;28;20513;-63
2021/11/23 15:15:07;;;;;;;29.67;16.45;;;6.70;99.90;;;;;;5075392;28;20025;-62
2021/11/23 15:17:33;;;;;;;39.45;17.63;;;6.60;99.90;;;;;;5057182;28;20040;-63
2021/11/23 15:19:58;;;;;;;27.48;15.23;;;6.60;99.90;;;;;;5075426;28;20331;-64
2021/11/23 15:22:25;;;;;;;33.13;15.88;;;6.60;99.90;;;;;;5074716;28;20028;-62
2021/11/23 15:24:50;;;;;;;33.85;16.40;;;6.60;99.90;;;;;;5074999;28;20357;-63
2021/11/23 15:27:16;;;;;;;33.67;16.30;;;6.60;99.90;;;;;;5074943;28;20035;-60
2021/11/23 15:29:41;;;;;;;39.72;17.33;;;6.60;99.90;;;;;;5074934;28;20039;-62
2021/11/23 15:32:09;;;;;;;32.03;18.25;;;6.50;99.90;;;;;;5074344;28;20032;-61
2021/11/23 15:34:37;;;;;;;34.97;16.80;;;6.40;99.90;;;;;;5074760;28;20357;-61
2021/11/23 15:37:04;;;;;;;31.30;16.65;;;6.40;99.90;;;;;;5074536;28;20043;-63
2021/11/23 15:39:30;;;;;;;34.72;16.95;;;6.40;99.90;;;;;;5074680;28;20040;-60
2021/11/23 15:41:56;;;;;;;31.85;17.17;;;6.40;99.90;;;;;;5074121;28;20101;-61
2021/11/23 15:44:23;;;;;;;37.67;18.63;;;6.50;99.90;;;;;;5073828;28;20028;-64
2021/11/23 15:46:49;;;;;;;36.10;17.77;;;6.50;99.90;;;;;;5050831;28;20020;-68
2021/11/23 15:49:15;;;;;;;43.65;19.05;;;6.40;99.90;;;;;;5074683;28;20032;-68
2021/11/23 15:51:45;;;;;;;36.22;18.55;;;6.40;99.90;;;;;;5074079;28;20025;-70
2021/11/23 15:54:11;;;;;;;33.88;15.90;;;6.40;99.90;;;;;;5074383;28;20028;-68
2021/11/23 15:56:38;;;;;;;38.00;16.70;;;6.40;99.90;;;;;;5074548;28;20383;-68
2021/11/23 15:59:06;;;;;;;29.02;16.10;;;6.60;99.90;;;;;;5074698;28;20097;-70
2021/11/23 16:01:34;;;;;;;33.53;15.25;;;6.70;99.90;;;;;;5073931;28;20027;-70
2021/11/23 16:04:01;;;;;;;36.90;16.45;;;6.60;99.90;;;;;;5073749;28;20032;-67
2021/11/23 16:06:29;;;;;;;34.33;17.33;;;6.60;99.90;;;;;;5073451;28;20109;-69
2021/11/23 16:08:54;;;;;;;38.27;17.23;;;6.60;99.90;;;;;;5073904;28;20019;-68
2021/11/23 16:11:22;;;;;;;40.03;18.23;;;6.50;99.90;;;;;;5066936;28;20025;-63
2021/11/23 16:13:48;;;;;;;32.05;16.95;;;6.40;99.90;;;;;;5073512;28;20025;-66
2021/11/23 16:16:19;;;;;;;33.30;16.50;;;6.40;99.90;;;;;;5073376;28;20353;-68
2021/11/23 16:18:44;;;;;;;32.00;18.57;;;6.40;99.90;;;;;;5066534;28;20024;-69
2021/11/23 16:21:10;;;;;;;33.58;16.75;;;6.40;99.90;;;;;;5073602;28;20028;-69
2021/11/23 16:23:38;;;;;;;35.92;18.52;;;6.40;99.90;;;;;;5055647;28;20359;-68
2021/11/23 16:26:07;;;;;;;33.35;17.92;;;6.50;99.90;;;;;;5073662;28;20052;-68
2021/11/23 16:28:35;;;;;;;33.65;17.38;;;6.40;99.90;;;;;;5073647;28;20115;-68
2021/11/23 16:31:03;;;;;;;34.85;16.63;;;6.50;99.90;;;;;;5073835;28;20371;-70
2021/11/23 16:33:29;;;;;;;33.83;16.80;;;6.60;99.90;;;;;;5073176;28;20020;-67
2021/11/23 16:35:54;;;;;;;35.53;17.05;;;6.50;99.90;;;;;;5073491;28;20017;-68
2021/11/23 16:38:20;;;;;;;39.50;19.42;;;6.40;99.90;;;;;;5073316;28;20315;-69
2021/11/23 16:40:48;;;;;;;40.17;18.20;;;6.50;99.90;;;;;;5073429;28;20044;-71
2021/11/23 16:43:15;;;;;;;37.28;19.55;;;6.50;99.90;;;;;;5074231;28;20027;-64
2021/11/23 16:45:43;;;;;;;42.35;19.67;;;6.50;99.90;;;;;;5071849;28;20024;-67
2021/11/23 16:48:09;;;;;;;41.25;19.92;;;6.50;99.90;;;;;;5073219;28;20032;-67
2021/11/23 16:50:37;;;;;;;45.08;19.52;;;6.50;99.90;;;;;;5072928;28;20503;-70
2021/11/23 16:53:02;;;;;;;40.90;18.98;;;6.40;99.90;;;;;;5073297;28;20021;-65
2021/11/23 16:55:28;;;;;;;32.03;18.48;;;6.50;99.90;;;;;;5055112;28;20031;-68
2021/11/23 16:57:54;;;;;;;44.70;19.92;;;6.50;99.90;;;;;;5072908;28;20049;-65
2021/11/23 17:00:20;;;;;;;37.92;19.45;;;6.40;99.90;;;;;;5073682;28;20021;-71
2021/11/23 17:02:46;;;;;;;35.17;19.17;;;6.40;99.90;;;;;;5073301;28;20428;-68
2021/11/23 17:05:12;;;;;;;36.78;18.40;;;6.40;99.90;;;;;;5073564;28;20040;-67
2021/11/23 17:07:38;;;;;;;37.65;18.55;;;6.30;99.90;;;;;;5073219;28;20074;-66
2021/11/23 17:10:05;;;;;;;34.65;17.90;;;6.40;99.90;;;;;;5073220;28;20034;-66
2021/11/23 17:12:31;;;;;;;48.22;20.35;;;6.40;99.90;;;;;;5073275;28;20040;-65
2021/11/23 17:15:00;;;;;;;42.55;20.08;;;6.40;99.90;;;;;;5055559;28;20029;-64
2021/11/23 17:17:30;;;;;;;39.67;18.58;;;6.40;99.90;;;;;;5055545;28;20028;-67
2021/11/23 17:19:56;;;;;;;45.37;20.00;;;6.30;99.90;;;;;;5073156;28;20025;-67
2021/11/23 17:22:23;;;;;;;40.60;19.98;;;6.30;99.90;;;;;;5073075;28;20071;-65
2021/11/23 17:24:53;;;;;;;40.53;21.33;;;6.40;99.90;;;;;;5055662;28;20457;-68
2021/11/23 17:27:20;;;;;;;36.63;19.63;;;6.40;99.90;;;;;;5073191;28;20031;-62
2021/11/23 17:29:46;;;;;;;37.35;18.45;;;6.30;99.90;;;;;;5073164;28;20067;-68
2021/11/23 17:32:14;;;;;;;42.80;20.60;;;6.40;99.90;;;;;;5075782;28;20028;-68
2021/11/23 17:34:40;;;;;;;42.55;20.23;;;6.40;99.90;;;;;;5077074;28;20020;-63
2021/11/23 17:37:06;;;;;;;36.85;19.63;;;6.40;99.90;;;;;;5077108;28;20035;-68
2021/11/23 17:39:35;;;;;;;40.10;19.42;;;6.40;99.90;;;;;;5077044;28;20020;-67
2021/11/23 17:42:02;;;;;;;41.90;20.60;;;6.40;99.90;;;;;;5077004;28;20020;-68
2021/11/23 17:44:33;;;;;;;38.58;19.10;;;6.40;99.90;;;;;;5076794;28;20051;-65
2021/11/23 17:47:01;;;;;;;42.58;21.23;;;6.40;99.90;;;;;;5076970;28;20067;-64
2021/11/23 17:49:32;;;;;;;39.38;18.30;;;6.40;99.90;;;;;;5076854;28;20357;-68
2021/11/23 17:52:01;;;;;;;29.15;13.70;;;6.40;99.90;;;;;;5076794;28;20032;-69
2021/11/23 17:54:27;;;;;;;37.28;19.05;;;6.40;99.90;;;;;;5059207;28;20028;-69
2021/11/23 17:56:52;;;;;;;39.20;18.80;;;6.30;99.90;;;;;;5075051;28;20086;-65
2021/11/23 17:59:18;;;;;;;32.88;18.17;;;6.30;99.90;;;;;;5059108;28;20100;-63
2021/11/23 18:01:46;;;;;;;37.25;18.67;;;6.30;99.90;;;;;;5076569;28;20036;-68
2021/11/23 18:04:14;;;;;;;37.63;20.50;;;6.40;99.90;;;;;;5076813;28;20051;-67
2021/11/23 18:06:40;;;;;;;35.22;19.88;;;6.40;99.90;;;;;;5076308;28;20027;-65
2021/11/23 18:09:05;;;;;;;33.88;19.85;;;6.30;99.90;;;;;;5075361;28;20029;-64
2021/11/23 18:11:35;;;;;;;34.63;18.98;;;6.40;99.90;;;;;;5070856;28;20495;-67
2021/11/23 18:14:03;;;;;;;37.65;18.98;;;6.40;99.90;;;;;;5076387;28;20158;-65
2021/11/23 18:16:28;;;;;;;32.78;17.80;;;6.40;99.90;;;;;;5076114;28;20369;-65
2021/11/23 18:18:56;;;;;;;43.35;20.77;;;6.40;99.90;;;;;;5076040;28;20036;-66
2021/11/23 18:21:23;;;;;;;40.95;20.00;;;6.30;99.90;;;;;;5075942;28;20108;-67
2021/11/23 18:23:49;;;;;;;37.97;19.77;;;6.30;99.90;;;;;;5076080;28;20100;-68
2021/11/23 18:26:15;;;;;;;39.38;18.52;;;6.30;99.90;;;;;;5075946;28;20116;-68
2021/11/23 18:28:43;;;;;;;43.78;19.83;;;6.30;99.90;;;;;;5076451;28;20078;-67
2021/11/23 18:31:09;;;;;;;43.97;21.27;;;6.30;99.90;;;;;;5058420;28;20035;-69
2021/11/23 18:33:34;;;;;;;36.05;19.15;;;6.30;99.90;;;;;;5075856;28;20103;-66
2021/11/23 18:36:00;;;;;;;38.47;19.83;;;6.20;99.90;;;;;;5075755;28;20017;-63
2021/11/23 18:38:32;;;;;;;38.35;19.02;;;6.20;99.90;;;;;;5069902;28;20021;-66
2021/11/23 18:40:58;;;;;;;38.80;20.58;;;6.20;99.90;;;;;;5075979;28;20409;-64
2021/11/23 18:43:24;;;;;;;48.25;21.58;;;6.20;99.90;;;;;;5075236;28;20104;-64
2021/11/23 18:45:52;;;;;;;42.28;18.55;;;6.20;99.90;;;;;;5058056;28;20032;-64
2021/11/23 18:48:18;;;;;;;38.35;19.40;;;6.20;99.90;;;;;;5075545;28;20025;-65
2021/11/23 18:50:47;;;;;;;41.72;18.95;;;6.20;99.90;;;;;;5070088;28;20365;-65
2021/11/23 18:53:13;;;;;;;38.42;20.05;;;6.20;99.90;;;;;;5074818;28;20020;-65
2021/11/23 18:55:38;;;;;;;41.25;20.00;;;6.20;99.90;;;;;;5057862;28;20078;-65
2021/11/23 18:58:06;;;;;;;57.45;22.05;;;6.20;99.90;;;;;;5075355;28;20100;-63
2021/11/23 19:00:40;;;;;;;36.70;18.67;;;6.20;99.90;;;;;;5070932;28;20428;-64
2021/11/23 19:03:05;;;;;;;39.60;19.20;;;6.30;99.90;;;;;;5075383;28;20078;-63
2021/11/23 19:05:31;;;;;;;37.80;19.52;;;6.30;99.90;;;;;;5075591;28;20028;-66
2021/11/23 19:07:59;;;;;;;37.28;18.92;;;6.20;99.90;;;;;;5075477;28;20024;-65
2021/11/23 19:10:25;;;;;;;40.30;20.40;;;6.20;99.90;;;;;;5075325;28;20028;-68
2021/11/23 19:12:52;;;;;;;43.88;22.30;;;6.20;99.90;;;;;;5057774;28;20333;-68
2021/11/23 19:15:21;;;;;;;36.70;20.23;;;6.20;99.90;;;;;;5077232;28;20016;-65
2021/11/23 19:17:47;;;;;;;47.35;20.45;;;6.20;99.90;;;;;;5075375;28;20025;-66
2021/11/23 19:20:14;;;;;;;37.78;19.10;;;6.30;99.90;;;;;;5075428;28;20107;-62
2021/11/23 19:22:43;;;;;;;40.42;18.60;;;6.30;99.90;;;;;;5075528;28;20094;-63
2021/11/23 19:25:13;;;;;;;39.50;17.42;;;6.30;99.90;;;;;;5064317;28;20028;-65
2021/11/23 19:27:41;;;;;;;33.58;18.45;;;6.20;99.90;;;;;;5069381;28;20017;-65
2021/11/23 19:30:10;;;;;;;37.05;18.50;;;6.30;99.90;;;;;;5073905;28;20028;-65
2021/11/23 19:32:37;;;;;;;40.00;20.02;;;6.20;99.90;;;;;;5052262;28;20031;-65
2021/11/23 19:35:11;;;;;;;46.28;20.85;;;6.20;99.90;;;;;;5068913;28;20014;-65
2021/11/23 19:37:41;;;;;;;36.83;17.77;;;6.20;99.90;;;;;;5056732;28;20035;-65
2021/11/23 19:40:14;;;;;;;33.63;17.30;;;6.30;99.90;;;;;;5074999;28;20437;-65
2021/11/23 19:42:45;;;;;;;45.10;19.52;;;6.30;99.90;;;;;;5056900;28;20346;-64
2021/11/23 19:45:11;;;;;;;36.33;18.70;;;6.20;99.90;;;;;;5074760;28;20066;-63
2021/11/23 19:47:39;;;;;;;32.03;17.85;;;6.20;99.90;;;;;;5074659;28;20032;-65
2021/11/23 19:50:08;;;;;;;28.65;16.23;;;6.20;99.90;;;;;;5074699;28;20094;-64
2021/11/23 19:52:36;;;;;;;27.95;15.27;;;6.20;99.90;;;;;;5074514;28;20052;-62
2021/11/23 19:55:04;;;;;;;37.42;19.27;;;6.20;99.90;;;;;;5074024;28;20025;-65
2021/11/23 19:57:32;;;;;;;34.53;16.75;;;6.10;99.90;;;;;;5074345;28;20020;-68
2021/11/23 19:59:58;;;;;;;28.65;15.30;;;6.10;99.90;;;;;;5074575;28;20059;-67
2021/11/23 20:02:28;;;;;;;37.58;20.02;;;6.10;99.90;;;;;;5074447;28;20048;-66
2021/11/23 20:04:55;;;;;;;27.85;16.05;;;6.10;99.90;;;;;;5074428;28;20039;-67
2021/11/23 20:07:23;;;;;;;33.30;17.23;;;6.10;99.90;;;;;;5056592;28;20049;-65
2021/11/23 20:09:53;;;;;;;30.33;16.08;;;6.10;99.90;;;;;;5073956;28;20572;-64
2021/11/23 20:12:23;;;;;;;30.80;15.90;;;6.10;99.90;;;;;;5074227;28;20028;-66
2021/11/23 20:14:50;;;;;;;31.45;16.90;;;6.10;99.90;;;;;;5074248;28;20017;-66
2021/11/23 20:17:17;;;;;;;37.17;17.33;;;6.10;99.90;;;;;;5067274;28;20575;-66
2021/11/23 20:19:47;;;;;;;31.02;16.05;;;6.10;99.90;;;;;;5074198;28;20028;-66
2021/11/23 20:22:17;;;;;;;32.05;17.02;;;6.10;99.90;;;;;;5073922;28;20103;-68
2021/11/23 20:24:44;;;;;;;31.55;17.15;;;6.10;99.90;;;;;;5074101;28;20031;-67
2021/11/23 20:27:10;;;;;;;30.20;18.17;;;6.10;99.90;;;;;;5073850;28;20458;-68
2021/11/23 20:29:36;;;;;;;35.25;18.33;;;6.10;99.90;;;;;;5073469;28;20039;-66
2021/11/23 20:32:04;;;;;;;32.95;16.55;;;6.10;99.90;;;;;;5073581;28;20091;-68
2021/11/23 20:34:37;;;;;;;35.33;17.15;;;6.10;99.90;;;;;;5074018;28;20021;-66
2021/11/23 20:37:03;;;;;;;31.00;17.02;;;6.10;99.90;;;;;;5073568;28;20020;-66
2021/11/23 20:39:29;;;;;;;35.40;17.08;;;6.10;99.90;;;;;;5056210;28;20599;-71
2021/11/23 20:41:56;;;;;;;31.50;16.30;;;6.10;99.90;;;;;;5073704;28;20104;-66
2021/11/23 20:44:22;;;;;;;34.97;18.27;;;6.10;99.90;;;;;;5067371;28;20028;-71
2021/11/23 20:46:48;;;;;;;31.45;16.40;;;6.10;99.90;;;;;;5073983;28;20343;-72
2021/11/23 20:49:14;;;;;;;44.38;20.48;;;6.10;99.90;;;;;;5073121;28;20393;-71
2021/11/23 20:51:41;;;;;;;38.97;19.10;;;6.00;99.90;;;;;;5073779;28;20056;-69
2021/11/23 20:54:06;;;;;;;46.50;19.15;;;6.00;99.90;;;;;;5075928;28;20052;-66
2021/11/23 20:56:32;;;;;;;42.72;18.70;;;6.10;99.90;;;;;;5073703;28;20405;-66
2021/11/23 20:58:58;;;;;;;42.35;18.27;;;6.00;99.90;;;;;;5073640;28;20381;-63
2021/11/23 21:01:24;;;;;;;36.75;20.08;;;6.00;99.90;;;;;;5067124;28;20025;-66
2021/11/23 21:03:49;;;;;;;47.92;19.88;;;6.00;99.90;;;;;;5073917;28;20044;-66
2021/11/23 21:06:15;;;;;;;41.30;20.20;;;6.10;99.90;;;;;;5073435;28;20090;-65
2021/11/23 21:08:41;;;;;;;35.00;17.60;;;6.10;99.90;;;;;;5055668;28;20119;-69
2021/11/23 21:11:07;;;;;;;38.13;19.70;;;6.10;99.90;;;;;;5049015;28;20025;-65
2021/11/23 21:13:32;;;;;;;36.75;19.75;;;6.10;99.90;;;;;;5073820;28;20067;-66
2021/11/23 21:16:01;;;;;;;43.35;19.02;;;6.10;99.90;;;;;;5073656;28;20357;-65
2021/11/23 21:18:26;;;;;;;32.05;16.77;;;6.10;99.90;;;;;;5055744;28;20427;-63
2021/11/23 21:20:52;;;;;;;36.88;18.95;;;6.00;99.90;;;;;;5073516;28;20147;-66
2021/11/23 21:23:18;;;;;;;39.65;18.23;;;6.00;99.90;;;;;;5066808;28;20021;-70
2021/11/23 21:25:45;;;;;;;38.05;20.50;;;6.00;99.90;;;;;;5073744;28;20441;-70
2021/11/23 21:28:13;;;;;;;36.70;18.52;;;6.00;99.90;;;;;;5073206;28;20021;-71
2021/11/23 21:30:38;;;;;;;34.33;17.25;;;6.00;99.90;;;;;;5073273;28;20040;-72
2021/11/23 21:33:04;;;;;;;32.70;15.90;;;6.00;99.90;;;;;;5073034;28;20392;-68
2021/11/23 21:35:35;;;;;;;31.52;17.23;;;6.00;99.90;;;;;;5073378;28;20040;-69
2021/11/23 21:38:03;;;;;;;32.63;18.00;;;6.10;99.90;;;;;;5073419;28;20460;-69
2021/11/23 21:40:32;;;;;;;36.00;18.10;;;6.00;99.90;;;;;;5073315;28;20029;-66
2021/11/23 21:45:36;;;;;;;42.55;18.75;;;6.00;99.90;;;;;;5073482;28;20024;-71
2021/11/23 21:48:05;;;;;;;37.35;18.45;;;6.00;99.90;;;;;;5073272;28;20398;-67
2021/11/23 21:50:39;;;;;;;37.70;18.90;;;6.00;99.90;;;;;;5066659;28;20115;-71
2021/11/23 21:53:10;;;;;;;39.03;17.80;;;6.00;99.90;;;;;;5073206;28;20615;-69
2021/11/23 21:55:36;;;;;;;33.47;16.90;;;6.00;99.90;;;;;;5073348;28;20457;-70
2021/11/23 21:58:02;;;;;;;37.42;17.27;;;6.00;99.90;;;;;;5066828;28;20485;-75
2021/11/23 22:00:28;;;;;;;33.60;17.48;;;6.00;99.90;;;;;;5072499;28;20024;-70